sensor_id;sensor_type;location;lat;lon;timestamp;temperature;humidity
7248;DHT22;3665;51.034;13.642;2023-09-19T00:14:51;15.10;99.90
7248;DHT22;3665;51.034;13.642;2023-09-19T00:20:11;15.10;99.90
7248;DHT22;3665;51.034;13.642;2023-09-19T00:25:14;15.20;99.90
7248;DHT22;3665;51.034;13.642;2023-09-19T00:35:37;15.30;99.90
7248;DHT22;3665;51.034;13.642;2023-09-19T00:51:02;15.30;99.90
7248;DHT22;3665;51.034;13.642;2023-09-19T00:55:49;15.40;99.90
7248;DHT22;3665;51.034;13.642;2023-09-19T01:00:55;15.40;99.90
7248;DHT22;3665;51.034;13.642;2023-09-19T01:05:39;15.50;99.90
7248;DHT22;3665;51.034;13.642;2023-09-19T01:10:28;15.50;99.90
7248;DHT22;3665;51.034;13.642;2023-09-19T01:15:40;15.50;99.90
7248;DHT22;3665;51.034;13.642;2023-09-19T01:20:37;15.50;99.90
7248;DHT22;3665;51.034;13.642;2023-09-19T01:31:19;15.60;99.90
7248;DHT22;3665;51.034;13.642;2023-09-19T01:36:09;15.70;99.90
7248;DHT22;3665;51.034;13.642;2023-09-19T01:52:05;15.90;99.90
7248;DHT22;3665;51.034;13.642;2023-09-19T01:57:42;16.00;99.90
7248;DHT22;3665;51.034;13.642;2023-09-19T02:02:47;16.00;99.90
7248;DHT22;3665;51.034;13.642;2023-09-19T02:13:23;16.10;99.90
7248;DHT22;3665;51.034;13.642;2023-09-19T02:18:11;16.10;99.90
7248;DHT22;3665;51.034;13.642;2023-09-19T02:23:03;16.20;99.90
7248;DHT22;3665;51.034;13.642;2023-09-19T02:27:51;16.20;99.90
7248;DHT22;3665;51.034;13.642;2023-09-19T02:32:51;16.20;99.90
7248;DHT22;3665;51.034;13.642;2023-09-19T02:37:38;16.30;99.90
7248;DHT22;3665;51.034;13.642;2023-09-19T02:42:25;16.20;99.90
7248;DHT22;3665;51.034;13.642;2023-09-19T02:47:15;16.20;99.90
7248;DHT22;3665;51.034;13.642;2023-09-19T02:52:08;16.10;99.90
7248;DHT22;3665;51.034;13.642;2023-09-19T02:56:52;16.20;99.90
7248;DHT22;3665;51.034;13.642;2023-09-19T03:01:46;16.20;99.90
7248;DHT22;3665;51.034;13.642;2023-09-19T03:06:43;16.20;99.90
7248;DHT22;3665;51.034;13.642;2023-09-19T03:11:32;16.20;99.90
7248;DHT22;3665;51.034;13.642;2023-09-19T03:16:18;16.30;99.90
7248;DHT22;3665;51.034;13.642;2023-09-19T03:21:07;16.20;99.90
7248;DHT22;3665;51.034;13.642;2023-09-19T03:25:56;16.10;99.90
7248;DHT22;3665;51.034;13.642;2023-09-19T03:30:44;16.20;99.90
7248;DHT22;3665;51.034;13.642;2023-09-19T03:35:30;16.10;99.90
7248;DHT22;3665;51.034;13.642;2023-09-19T03:40:19;16.10;99.90
7248;DHT22;3665;51.034;13.642;2023-09-19T03:45:11;16.20;99.90
7248;DHT22;3665;51.034;13.642;2023-09-19T03:50:13;16.20;99.90
7248;DHT22;3665;51.034;13.642;2023-09-19T03:54:57;16.20;99.90
7248;DHT22;3665;51.034;13.642;2023-09-19T03:59:46;16.10;99.90
7248;DHT22;3665;51.034;13.642;2023-09-19T04:04:33;16.10;99.90
7248;DHT22;3665;51.034;13.642;2023-09-19T04:09:21;16.00;99.90
7248;DHT22;3665;51.034;13.642;2023-09-19T04:14:11;15.90;99.90
7248;DHT22;3665;51.034;13.642;2023-09-19T04:18:58;15.90;99.90
7248;DHT22;3665;51.034;13.642;2023-09-19T04:23:47;15.80;99.90
7248;DHT22;3665;51.034;13.642;2023-09-19T04:28:51;15.80;99.90
7248;DHT22;3665;51.034;13.642;2023-09-19T04:33:38;15.70;99.90
7248;DHT22;3665;51.034;13.642;2023-09-19T04:38:27;15.60;99.90
7248;DHT22;3665;51.034;13.642;2023-09-19T04:43:14;15.70;99.90
7248;DHT22;3665;51.034;13.642;2023-09-19T04:48:01;15.70;99.90
7248;DHT22;3665;51.034;13.642;2023-09-19T04:52:51;15.80;99.90
7248;DHT22;3665;51.034;13.642;2023-09-19T04:57:37;15.80;99.90
7248;DHT22;3665;51.034;13.642;2023-09-19T05:02:23;15.80;99.90
7248;DHT22;3665;51.034;13.642;2023-09-19T05:07:23;15.80;99.90
7248;DHT22;3665;51.034;13.642;2023-09-19T05:12:17;15.80;99.90
7248;DHT22;3665;51.034;13.642;2023-09-19T05:17:08;15.90;99.90
7248;DHT22;3665;51.034;13.642;2023-09-19T05:21:53;15.90;99.90
7248;DHT22;3665;51.034;13.642;2023-09-19T05:26:49;16.00;99.90
7248;DHT22;3665;51.034;13.642;2023-09-19T05:31:45;16.00;99.90
7248;DHT22;3665;51.034;13.642;2023-09-19T05:36:35;16.00;99.90
7248;DHT22;3665;51.034;13.642;2023-09-19T05:41:22;15.90;99.90
7248;DHT22;3665;51.034;13.642;2023-09-19T05:46:10;16.10;99.90
7248;DHT22;3665;51.034;13.642;2023-09-19T05:50:59;16.10;99.90
7248;DHT22;3665;51.034;13.642;2023-09-19T05:55:46;16.10;99.90
7248;DHT22;3665;51.034;13.642;2023-09-19T06:00:35;16.20;99.90
7248;DHT22;3665;51.034;13.642;2023-09-19T06:05:39;16.30;99.90
7248;DHT22;3665;51.034;13.642;2023-09-19T06:10:23;16.40;99.90
7248;DHT22;3665;51.034;13.642;2023-09-19T06:15:15;16.40;99.90
7248;DHT22;3665;51.034;13.642;2023-09-19T06:20:01;16.50;99.90
7248;DHT22;3665;51.034;13.642;2023-09-19T06:24:50;16.50;99.90
7248;DHT22;3665;51.034;13.642;2023-09-19T06:29:37;16.40;99.90
7248;DHT22;3665;51.034;13.642;2023-09-19T06:34:27;16.60;99.90
7248;DHT22;3665;51.034;13.642;2023-09-19T06:39:13;16.80;99.90
7248;DHT22;3665;51.034;13.642;2023-09-19T06:44:22;17.00;99.90
7248;DHT22;3665;51.034;13.642;2023-09-19T06:49:06;17.10;1.00
7248;DHT22;3665;51.034;13.642;2023-09-19T06:53:54;17.20;1.00
7248;DHT22;3665;51.034;13.642;2023-09-19T06:59:00;17.40;1.00
7248;DHT22;3665;51.034;13.642;2023-09-19T07:04:01;17.90;1.00
7248;DHT22;3665;51.034;13.642;2023-09-19T07:08:47;18.20;1.00
7248;DHT22;3665;51.034;13.642;2023-09-19T07:13:38;18.50;1.00
7248;DHT22;3665;51.034;13.642;2023-09-19T07:18:25;18.60;1.00
7248;DHT22;3665;51.034;13.642;2023-09-19T07:23:10;18.70;1.00
7248;DHT22;3665;51.034;13.642;2023-09-19T07:28:04;18.80;1.00
7248;DHT22;3665;51.034;13.642;2023-09-19T07:32:51;19.10;1.00
7248;DHT22;3665;51.034;13.642;2023-09-19T07:37:38;19.00;1.00
7248;DHT22;3665;51.034;13.642;2023-09-19T07:42:42;19.20;1.00
7248;DHT22;3665;51.034;13.642;2023-09-19T07:47:29;19.40;1.00
7248;DHT22;3665;51.034;13.642;2023-09-19T07:52:33;19.70;1.00
7248;DHT22;3665;51.034;13.642;2023-09-19T07:57:23;20.00;1.00
7248;DHT22;3665;51.034;13.642;2023-09-19T08:02:11;19.70;1.00
7248;DHT22;3665;51.034;13.642;2023-09-19T08:06:58;19.60;1.00
7248;DHT22;3665;51.034;13.642;2023-09-19T08:11:47;20.10;1.00
7248;DHT22;3665;51.034;13.642;2023-09-19T08:16:33;20.30;1.00
7248;DHT22;3665;51.034;13.642;2023-09-19T08:21:26;20.40;1.00
7248;DHT22;3665;51.034;13.642;2023-09-19T08:26:18;20.80;1.00
7248;DHT22;3665;51.034;13.642;2023-09-19T08:31:14;20.60;1.00
7248;DHT22;3665;51.034;13.642;2023-09-19T08:36:21;21.10;1.00
7248;DHT22;3665;51.034;13.642;2023-09-19T08:41:07;21.60;1.00
7248;DHT22;3665;51.034;13.642;2023-09-19T08:46:02;21.80;1.00
7248;DHT22;3665;51.034;13.642;2023-09-19T08:51:03;21.90;1.00
7248;DHT22;3665;51.034;13.642;2023-09-19T08:56:03;22.00;1.00
7248;DHT22;3665;51.034;13.642;2023-09-19T09:01:06;22.10;1.00
7248;DHT22;3665;51.034;13.642;2023-09-19T09:05:53;22.30;1.00
7248;DHT22;3665;51.034;13.642;2023-09-19T09:10:44;22.00;1.00
7248;DHT22;3665;51.034;13.642;2023-09-19T09:15:30;22.50;1.00
7248;DHT22;3665;51.034;13.642;2023-09-19T09:20:21;22.80;1.00
7248;DHT22;3665;51.034;13.642;2023-09-19T09:25:22;23.50;1.00
7248;DHT22;3665;51.034;13.642;2023-09-19T09:30:09;23.20;1.00
7248;DHT22;3665;51.034;13.642;2023-09-19T09:35:15;22.70;1.00
7248;DHT22;3665;51.034;13.642;2023-09-19T09:40:03;22.10;1.00
7248;DHT22;3665;51.034;13.642;2023-09-19T09:45:23;21.80;1.00
7248;DHT22;3665;51.034;13.642;2023-09-19T09:50:28;22.00;1.00
7248;DHT22;3665;51.034;13.642;2023-09-19T09:56:02;22.30;1.00
7248;DHT22;3665;51.034;13.642;2023-09-19T10:00:57;22.30;1.00
7248;DHT22;3665;51.034;13.642;2023-09-19T10:05:57;21.60;1.00
7248;DHT22;3665;51.034;13.642;2023-09-19T10:10:54;21.60;1.00
7248;DHT22;3665;51.034;13.642;2023-09-19T10:15:49;21.90;1.00
7248;DHT22;3665;51.034;13.642;2023-09-19T10:20:53;22.30;1.00
7248;DHT22;3665;51.034;13.642;2023-09-19T10:25:39;22.50;1.00
7248;DHT22;3665;51.034;13.642;2023-09-19T10:30:27;22.60;1.00
7248;DHT22;3665;51.034;13.642;2023-09-19T10:35:15;22.40;1.00
7248;DHT22;3665;51.034;13.642;2023-09-19T10:40:06;22.90;1.00
7248;DHT22;3665;51.034;13.642;2023-09-19T10:45:11;22.70;1.00
7248;DHT22;3665;51.034;13.642;2023-09-19T10:50:30;22.80;1.00
7248;DHT22;3665;51.034;13.642;2023-09-19T10:55:31;23.20;1.00
7248;DHT22;3665;51.034;13.642;2023-09-19T11:00:27;23.30;1.00
7248;DHT22;3665;51.034;13.642;2023-09-19T11:05:30;23.10;1.00
7248;DHT22;3665;51.034;13.642;2023-09-19T11:10:46;23.50;1.00
7248;DHT22;3665;51.034;13.642;2023-09-19T11:16:18;23.40;1.00
7248;DHT22;3665;51.034;13.642;2023-09-19T11:22:01;24.10;1.00
7248;DHT22;3665;51.034;13.642;2023-09-19T11:27:16;24.10;1.00
7248;DHT22;3665;51.034;13.642;2023-09-19T11:32:03;23.60;1.00
7248;DHT22;3665;51.034;13.642;2023-09-19T11:36:50;23.50;1.00
7248;DHT22;3665;51.034;13.642;2023-09-19T11:41:39;23.80;1.00
7248;DHT22;3665;51.034;13.642;2023-09-19T11:46:28;24.00;1.00
7248;DHT22;3665;51.034;13.642;2023-09-19T11:51:46;23.60;1.00
7248;DHT22;3665;51.034;13.642;2023-09-19T11:56:43;24.00;1.00
7248;DHT22;3665;51.034;13.642;2023-09-19T12:01:54;23.50;1.00
7248;DHT22;3665;51.034;13.642;2023-09-19T12:07:05;23.30;1.00
7248;DHT22;3665;51.034;13.642;2023-09-19T12:12:04;23.40;1.00
7248;DHT22;3665;51.034;13.642;2023-09-19T12:17:07;23.00;1.00
7248;DHT22;3665;51.034;13.642;2023-09-19T12:21:55;23.00;1.00
7248;DHT22;3665;51.034;13.642;2023-09-19T12:26:46;23.40;1.00
7248;DHT22;3665;51.034;13.642;2023-09-19T12:31:52;23.30;1.00
7248;DHT22;3665;51.034;13.642;2023-09-19T12:37:06;23.10;1.00
7248;DHT22;3665;51.034;13.642;2023-09-19T12:41:55;23.50;1.00
7248;DHT22;3665;51.034;13.642;2023-09-19T12:47:06;23.30;1.00
7248;DHT22;3665;51.034;13.642;2023-09-19T12:52:05;23.40;1.00
7248;DHT22;3665;51.034;13.642;2023-09-19T12:56:57;23.40;1.00
7248;DHT22;3665;51.034;13.642;2023-09-19T13:02:09;23.00;1.00
7248;DHT22;3665;51.034;13.642;2023-09-19T13:07:47;23.30;1.00
7248;DHT22;3665;51.034;13.642;2023-09-19T13:12:58;23.20;1.00
7248;DHT22;3665;51.034;13.642;2023-09-19T13:18:15;22.80;1.00
7248;DHT22;3665;51.034;13.642;2023-09-19T13:23:27;22.70;1.00
7248;DHT22;3665;51.034;13.642;2023-09-19T13:28:11;22.40;1.00
7248;DHT22;3665;51.034;13.642;2023-09-19T13:33:42;22.90;1.00
7248;DHT22;3665;51.034;13.642;2023-09-19T13:44:42;22.40;1.00
7248;DHT22;3665;51.034;13.642;2023-09-19T13:49:38;22.50;1.00
7248;DHT22;3665;51.034;13.642;2023-09-19T13:59:45;22.70;1.00
7248;DHT22;3665;51.034;13.642;2023-09-19T14:04:58;22.60;1.00
7248;DHT22;3665;51.034;13.642;2023-09-19T14:09:53;22.80;1.00
7248;DHT22;3665;51.034;13.642;2023-09-19T14:15:01;22.80;1.00
7248;DHT22;3665;51.034;13.642;2023-09-19T14:19:46;22.70;1.00
7248;DHT22;3665;51.034;13.642;2023-09-19T14:24:31;22.80;1.00
7248;DHT22;3665;51.034;13.642;2023-09-19T14:29:24;22.70;1.00
7248;DHT22;3665;51.034;13.642;2023-09-19T14:34:09;22.70;1.00
7248;DHT22;3665;51.034;13.642;2023-09-19T14:39:01;22.70;1.00
7248;DHT22;3665;51.034;13.642;2023-09-19T14:43:45;22.50;1.00
7248;DHT22;3665;51.034;13.642;2023-09-19T14:48:29;22.40;1.00
7248;DHT22;3665;51.034;13.642;2023-09-19T14:53:15;22.50;1.00
7248;DHT22;3665;51.034;13.642;2023-09-19T14:58:11;22.60;1.00
7248;DHT22;3665;51.034;13.642;2023-09-19T15:02:57;22.10;1.00
7248;DHT22;3665;51.034;13.642;2023-09-19T15:07:46;22.00;1.00
7248;DHT22;3665;51.034;13.642;2023-09-19T15:12:58;21.90;1.00
7248;DHT22;3665;51.034;13.642;2023-09-19T15:17:45;21.80;1.00
7248;DHT22;3665;51.034;13.642;2023-09-19T15:22:42;21.70;1.00
7248;DHT22;3665;51.034;13.642;2023-09-19T15:27:29;21.80;1.00
7248;DHT22;3665;51.034;13.642;2023-09-19T15:32:19;21.60;1.00
7248;DHT22;3665;51.034;13.642;2023-09-19T15:37:09;21.50;1.00
7248;DHT22;3665;51.034;13.642;2023-09-19T15:41:55;21.30;1.00
7248;DHT22;3665;51.034;13.642;2023-09-19T15:46:45;20.90;1.00
7248;DHT22;3665;51.034;13.642;2023-09-19T15:51:30;20.80;1.00
7248;DHT22;3665;51.034;13.642;2023-09-19T15:56:21;20.60;1.00
7248;DHT22;3665;51.034;13.642;2023-09-19T16:01:07;20.40;1.00
7248;DHT22;3665;51.034;13.642;2023-09-19T16:05:55;20.30;1.00
7248;DHT22;3665;51.034;13.642;2023-09-19T16:10:42;20.00;1.00
7248;DHT22;3665;51.034;13.642;2023-09-19T16:15:29;19.90;1.00
7248;DHT22;3665;51.034;13.642;2023-09-19T16:20:22;19.80;1.00
7248;DHT22;3665;51.034;13.642;2023-09-19T16:25:07;19.50;1.00
7248;DHT22;3665;51.034;13.642;2023-09-19T16:29:55;19.40;1.00
7248;DHT22;3665;51.034;13.642;2023-09-19T16:34:42;19.30;1.00
7248;DHT22;3665;51.034;13.642;2023-09-19T16:39:31;19.20;1.00
7248;DHT22;3665;51.034;13.642;2023-09-19T16:44:18;19.00;1.00
7248;DHT22;3665;51.034;13.642;2023-09-19T16:49:08;18.80;1.00
7248;DHT22;3665;51.034;13.642;2023-09-19T16:53:55;18.60;1.00
7248;DHT22;3665;51.034;13.642;2023-09-19T16:58:45;18.50;1.00
7248;DHT22;3665;51.034;13.642;2023-09-19T17:03:30;18.30;1.00
7248;DHT22;3665;51.034;13.642;2023-09-19T17:08:18;18.10;1.00
7248;DHT22;3665;51.034;13.642;2023-09-19T17:13:03;17.90;1.00
7248;DHT22;3665;51.034;13.642;2023-09-19T17:17:52;17.90;1.00
7248;DHT22;3665;51.034;13.642;2023-09-19T17:22:41;17.80;1.00
7248;DHT22;3665;51.034;13.642;2023-09-19T17:32:49;17.40;1.00
7248;DHT22;3665;51.034;13.642;2023-09-19T17:37:39;17.30;1.00
7248;DHT22;3665;51.034;13.642;2023-09-19T17:42:26;17.10;1.00
7248;DHT22;3665;51.034;13.642;2023-09-19T17:47:16;16.80;1.00
7248;DHT22;3665;51.034;13.642;2023-09-19T17:52:02;16.70;1.00
7248;DHT22;3665;51.034;13.642;2023-09-19T17:56:49;16.60;1.00
7248;DHT22;3665;51.034;13.642;2023-09-19T18:01:37;16.50;1.00
7248;DHT22;3665;51.034;13.642;2023-09-19T18:06:31;16.30;1.00
7248;DHT22;3665;51.034;13.642;2023-09-19T18:11:17;16.20;1.00
7248;DHT22;3665;51.034;13.642;2023-09-19T18:16:13;16.10;1.00
7248;DHT22;3665;51.034;13.642;2023-09-19T18:21:02;15.90;1.00
7248;DHT22;3665;51.034;13.642;2023-09-19T18:25:49;15.90;1.00
7248;DHT22;3665;51.034;13.642;2023-09-19T18:30:41;16.00;1.00
7248;DHT22;3665;51.034;13.642;2023-09-19T18:35:31;15.90;1.00
7248;DHT22;3665;51.034;13.642;2023-09-19T18:40:18;15.70;1.00
7248;DHT22;3665;51.034;13.642;2023-09-19T18:45:08;15.50;1.00
7248;DHT22;3665;51.034;13.642;2023-09-19T18:49:57;15.40;1.00
7248;DHT22;3665;51.034;13.642;2023-09-19T18:54:43;15.20;1.00
7248;DHT22;3665;51.034;13.642;2023-09-19T18:59:28;15.00;1.00
7248;DHT22;3665;51.034;13.642;2023-09-19T19:04:14;14.90;1.00
7248;DHT22;3665;51.034;13.642;2023-09-19T19:09:05;14.80;1.00
7248;DHT22;3665;51.034;13.642;2023-09-19T19:13:53;14.80;1.00
7248;DHT22;3665;51.034;13.642;2023-09-19T19:18:43;14.80;1.00
7248;DHT22;3665;51.034;13.642;2023-09-19T19:23:29;14.80;1.00
7248;DHT22;3665;51.034;13.642;2023-09-19T19:28:17;14.90;1.00
7248;DHT22;3665;51.034;13.642;2023-09-19T19:33:07;14.90;1.00
7248;DHT22;3665;51.034;13.642;2023-09-19T19:37:54;14.90;1.00
7248;DHT22;3665;51.034;13.642;2023-09-19T19:42:42;14.90;1.00
7248;DHT22;3665;51.034;13.642;2023-09-19T19:47:30;14.80;1.00
7248;DHT22;3665;51.034;13.642;2023-09-19T19:52:20;14.80;1.00
7248;DHT22;3665;51.034;13.642;2023-09-19T19:57:04;14.70;1.00
7248;DHT22;3665;51.034;13.642;2023-09-19T20:01:54;14.60;1.00
7248;DHT22;3665;51.034;13.642;2023-09-19T20:06:42;14.60;1.00
7248;DHT22;3665;51.034;13.642;2023-09-19T20:11:29;14.50;1.00
7248;DHT22;3665;51.034;13.642;2023-09-19T20:16:18;14.40;1.00
7248;DHT22;3665;51.034;13.642;2023-09-19T20:21:06;14.40;1.00
7248;DHT22;3665;51.034;13.642;2023-09-19T20:25:54;14.30;1.00
7248;DHT22;3665;51.034;13.642;2023-09-19T20:30:44;14.20;1.00
7248;DHT22;3665;51.034;13.642;2023-09-19T20:35:30;14.30;1.00
7248;DHT22;3665;51.034;13.642;2023-09-19T20:40:22;14.40;1.00
7248;DHT22;3665;51.034;13.642;2023-09-19T20:45:09;14.40;1.00
7248;DHT22;3665;51.034;13.642;2023-09-19T20:49:55;14.30;1.00
7248;DHT22;3665;51.034;13.642;2023-09-19T20:54:38;14.30;1.00
7248;DHT22;3665;51.034;13.642;2023-09-19T20:59:30;14.30;1.00
7248;DHT22;3665;51.034;13.642;2023-09-19T21:04:17;14.20;1.00
7248;DHT22;3665;51.034;13.642;2023-09-19T21:09:06;14.20;1.00
7248;DHT22;3665;51.034;13.642;2023-09-19T21:13:56;14.10;1.00
7248;DHT22;3665;51.034;13.642;2023-09-19T21:18:43;14.10;1.00
7248;DHT22;3665;51.034;13.642;2023-09-19T21:23:30;14.00;1.00
7248;DHT22;3665;51.034;13.642;2023-09-19T21:28:18;14.00;1.00
7248;DHT22;3665;51.034;13.642;2023-09-19T21:33:07;13.90;1.00
7248;DHT22;3665;51.034;13.642;2023-09-19T21:37:53;13.80;1.00
7248;DHT22;3665;51.034;13.642;2023-09-19T21:42:43;13.80;1.00
7248;DHT22;3665;51.034;13.642;2023-09-19T21:47:32;13.70;1.00
7248;DHT22;3665;51.034;13.642;2023-09-19T21:52:17;13.60;1.00
7248;DHT22;3665;51.034;13.642;2023-09-19T21:57:01;13.60;1.00
7248;DHT22;3665;51.034;13.642;2023-09-19T22:01:48;13.50;1.00
7248;DHT22;3665;51.034;13.642;2023-09-19T22:06:32;13.30;1.00
7248;DHT22;3665;51.034;13.642;2023-09-19T22:11:18;13.30;1.00
7248;DHT22;3665;51.034;13.642;2023-09-19T22:16:09;13.30;1.00
7248;DHT22;3665;51.034;13.642;2023-09-19T22:20:58;13.30;1.00
7248;DHT22;3665;51.034;13.642;2023-09-19T22:26:02;13.40;1.00
7248;DHT22;3665;51.034;13.642;2023-09-19T22:30:47;13.50;1.00
7248;DHT22;3665;51.034;13.642;2023-09-19T22:35:34;13.40;1.00
7248;DHT22;3665;51.034;13.642;2023-09-19T22:40:23;13.40;1.00
7248;DHT22;3665;51.034;13.642;2023-09-19T22:45:13;13.40;1.00
7248;DHT22;3665;51.034;13.642;2023-09-19T22:49:57;13.50;1.00
7248;DHT22;3665;51.034;13.642;2023-09-19T22:54:47;13.60;1.00
7248;DHT22;3665;51.034;13.642;2023-09-19T22:59:40;13.70;1.00
7248;DHT22;3665;51.034;13.642;2023-09-19T23:04:25;13.70;1.00
7248;DHT22;3665;51.034;13.642;2023-09-19T23:09:09;13.70;1.00
7248;DHT22;3665;51.034;13.642;2023-09-19T23:14:00;13.80;1.00
7248;DHT22;3665;51.034;13.642;2023-09-19T23:19:02;13.80;1.00
7248;DHT22;3665;51.034;13.642;2023-09-19T23:24:10;13.90;1.00
7248;DHT22;3665;51.034;13.642;2023-09-19T23:28:57;13.90;1.00
7248;DHT22;3665;51.034;13.642;2023-09-19T23:33:42;13.90;1.00
7248;DHT22;3665;51.034;13.642;2023-09-19T23:38:31;13.90;1.00
7248;DHT22;3665;51.034;13.642;2023-09-19T23:43:21;13.80;1.00
7248;DHT22;3665;51.034;13.642;2023-09-19T23:48:08;13.90;1.00
7248;DHT22;3665;51.034;13.642;2023-09-19T23:52:52;14.20;1.00
7248;DHT22;3665;51.034;13.642;2023-09-19T23:57:40;14.20;1.00
